Time;durP1;ratioP1;P1;durP2;ratioP2;P2;SDS_P1;SDS_P2;PMS_P1;PMS_P2;Temp;Humidity;BMP_temperature;BMP_pressure;BME280_temperature;BME280_humidity;BME280_pressure;Samples;Min_cycle;Max_cycle;Signal;HPM_P1;HPM_P2
2022/01/08 00:02:15;;;;;;;5.18;3.60;;;4.30;99.90;;;;;;4910852;29;20257;-72
2022/01/08 00:05:02;;;;;;;6.22;3.00;;;4.30;99.90;;;;;;4910707;29;20461;-72
2022/01/08 00:07:48;;;;;;;7.55;3.30;;;4.30;99.90;;;;;;4918389;29;20209;-72
2022/01/08 00:10:34;;;;;;;5.68;3.20;;;4.30;99.90;;;;;;4918791;29;20232;-71
2022/01/08 00:13:20;;;;;;;4.90;3.65;;;4.30;99.90;;;;;;4911280;29;20206;-72
2022/01/08 00:16:06;;;;;;;3.35;3.05;;;4.30;99.90;;;;;;4926874;29;20192;-72
2022/01/08 00:18:52;;;;;;;3.15;2.33;;;4.40;99.90;;;;;;4915362;29;20249;-71
2022/01/08 00:21:39;;;;;;;10.65;2.85;;;4.40;99.90;;;;;;4918192;29;20793;-72
2022/01/08 00:24:25;;;;;;;5.85;3.20;;;4.30;99.90;;;;;;4917229;29;20209;-72
2022/01/08 00:27:10;;;;;;;8.07;3.65;;;4.30;99.90;;;;;;4912381;29;20205;-71
2022/01/08 00:29:56;;;;;;;4.35;2.60;;;4.30;99.90;;;;;;4916055;29;20229;-71
2022/01/08 00:32:42;;;;;;;4.75;2.90;;;4.40;99.90;;;;;;4923165;29;20617;-72
2022/01/08 00:35:29;;;;;;;6.00;2.90;;;4.40;99.90;;;;;;4911120;29;20686;-72
2022/01/08 00:38:16;;;;;;;3.70;2.83;;;4.20;99.90;;;;;;4910649;29;20237;-72
2022/01/08 00:41:02;;;;;;;5.32;3.08;;;4.20;99.90;;;;;;4920237;29;20522;-71
2022/01/08 00:43:47;;;;;;;7.95;3.25;;;4.20;99.90;;;;;;4921517;29;20205;-71
2022/01/08 00:46:34;;;;;;;3.60;2.70;;;4.20;99.90;;;;;;4918677;29;20572;-71
2022/01/08 00:49:20;;;;;;;4.10;2.92;;;4.20;99.90;;;;;;4922304;29;20213;-71
2022/01/08 00:52:06;;;;;;;3.33;2.25;;;4.20;99.90;;;;;;4932038;29;20245;-72
2022/01/08 00:54:53;;;;;;;5.25;2.60;;;4.20;99.90;;;;;;4910761;29;20210;-72
2022/01/08 00:57:39;;;;;;;4.65;3.17;;;4.20;99.90;;;;;;4914243;29;20293;-72
2022/01/08 01:00:24;;;;;;;4.47;2.72;;;4.20;99.90;;;;;;4922861;29;20237;-72
2022/01/08 01:03:10;;;;;;;6.97;2.58;;;4.10;99.90;;;;;;4897108;29;20221;-72
2022/01/08 01:05:56;;;;;;;4.68;2.83;;;4.20;99.90;;;;;;4922541;29;20252;-72
2022/01/08 01:08:42;;;;;;;4.65;3.15;;;4.20;99.90;;;;;;4912539;29;20683;-72
2022/01/08 01:11:29;;;;;;;5.60;2.15;;;4.20;99.90;;;;;;4920732;29;20229;-73
2022/01/08 01:14:15;;;;;;;6.13;3.03;;;4.20;99.90;;;;;;4916538;29;20205;-72
2022/01/08 01:17:02;;;;;;;3.58;2.25;;;4.30;99.90;;;;;;4920209;29;20696;-73
2022/01/08 01:19:49;;;;;;;7.28;3.90;;;4.20;99.90;;;;;;4920374;29;20234;-72
2022/01/08 01:22:43;;;;;;;3.28;2.40;;;4.20;99.90;;;;;;4912843;29;20209;-72
2022/01/08 01:25:37;;;;;;;2.35;1.98;;;4.30;99.90;;;;;;4925213;29;20205;-72
2022/01/08 01:28:38;;;;;;;4.38;3.00;;;4.30;99.90;;;;;;4916062;29;20352;-72
2022/01/08 01:47:00;;;;;;;7.50;2.97;;;4.30;99.90;;;;;;4918453;29;20417;-72
2022/01/08 01:47:01;;;;;;;4.55;2.80;;;4.30;99.90;;;;;;4917039;29;20229;-72
2022/01/08 01:49:49;;;;;;;5.40;2.33;;;4.30;99.90;;;;;;4922214;29;20212;-72
2022/01/08 01:52:35;;;;;;;4.18;2.20;;;4.30;99.90;;;;;;4917565;29;20406;-72
2022/01/08 01:55:21;;;;;;;12.55;2.75;;;4.20;99.90;;;;;;4921476;29;20201;-72
2022/01/08 01:58:07;;;;;;;3.50;2.60;;;4.30;99.90;;;;;;4919228;29;20205;-72
2022/01/08 02:00:54;;;;;;;3.70;2.15;;;4.30;99.90;;;;;;4927476;29;20237;-71
2022/01/08 02:03:40;;;;;;;6.90;2.75;;;4.30;99.90;;;;;;4927650;29;20609;-71
2022/01/08 02:06:26;;;;;;;3.83;2.35;;;4.40;99.90;;;;;;4931187;29;20278;-71
2022/01/08 02:09:12;;;;;;;8.75;2.45;;;4.30;99.90;;;;;;4909396;29;20201;-72
2022/01/08 02:11:59;;;;;;;3.97;2.10;;;4.30;99.90;;;;;;4899339;29;20271;-71
2022/01/08 02:14:46;;;;;;;4.45;2.08;;;4.30;99.90;;;;;;4899428;29;20575;-71
2022/01/08 02:17:33;;;;;;;6.70;2.00;;;4.30;99.90;;;;;;4910225;29;20229;-71
2022/01/08 02:20:20;;;;;;;4.55;2.65;;;4.30;99.90;;;;;;4917649;29;20298;-71
2022/01/08 02:23:06;;;;;;;5.47;2.65;;;4.20;99.90;;;;;;4914496;29;20310;-72
2022/01/08 02:25:52;;;;;;;3.17;2.05;;;4.20;99.90;;;;;;4916427;29;20300;-71
2022/01/08 02:28:39;;;;;;;3.70;2.33;;;4.20;99.90;;;;;;4921154;29;20805;-72
2022/01/08 02:31:25;;;;;;;2.22;1.80;;;4.20;99.90;;;;;;4899414;29;20221;-71
2022/01/08 02:34:10;;;;;;;3.15;2.10;;;4.10;99.90;;;;;;4899077;29;20262;-71
2022/01/08 02:36:59;;;;;;;3.80;2.33;;;4.00;99.90;;;;;;4906185;29;20695;-72
2022/01/08 02:39:48;;;;;;;3.92;2.10;;;4.00;99.90;;;;;;4914999;29;20791;-71
2022/01/08 02:42:39;;;;;;;5.15;2.38;;;4.00;99.90;;;;;;4917740;29;20688;-71
2022/01/08 02:45:24;;;;;;;3.55;2.20;;;4.00;99.90;;;;;;4917573;29;20650;-72
2022/01/08 02:48:11;;;;;;;2.03;1.83;;;3.90;99.90;;;;;;4899580;29;20681;-72
2022/01/08 02:50:57;;;;;;;3.13;1.92;;;3.90;99.90;;;;;;4898711;29;20238;-71
2022/01/08 02:53:44;;;;;;;4.07;2.80;;;3.80;99.90;;;;;;4912115;29;20217;-71
2022/01/08 02:56:30;;;;;;;4.32;2.55;;;3.80;99.90;;;;;;4914019;29;20205;-72
2022/01/08 02:59:17;;;;;;;5.25;2.17;;;3.70;99.90;;;;;;4918380;29;20324;-71
2022/01/08 03:02:02;;;;;;;3.10;2.10;;;3.60;99.90;;;;;;4898820;29;20347;-71
2022/01/08 03:04:52;;;;;;;6.28;2.40;;;3.60;99.90;;;;;;4900880;29;20216;-71
2022/01/08 03:07:39;;;;;;;2.60;1.92;;;3.40;99.90;;;;;;4918414;29;20206;-71
2022/01/08 03:10:26;;;;;;;4.53;2.10;;;3.30;99.90;;;;;;4918348;29;20225;-71
2022/01/08 03:13:11;;;;;;;3.92;2.40;;;3.10;99.90;;;;;;4932406;29;20602;-71
2022/01/08 03:15:57;;;;;;;4.47;2.53;;;3.10;99.90;;;;;;4913557;29;20210;-72
2022/01/08 03:18:43;;;;;;;5.35;2.97;;;3.00;99.90;;;;;;4923181;29;20205;-71
2022/01/08 03:21:35;;;;;;;4.97;2.25;;;3.00;99.90;;;;;;4922039;29;20229;-71
2022/01/08 03:24:28;;;;;;;2.33;1.95;;;3.10;99.90;;;;;;4920438;29;20208;-71
2022/01/08 03:27:15;;;;;;;3.13;2.47;;;3.10;99.90;;;;;;4912460;29;20686;-72
2022/01/08 03:30:02;;;;;;;3.78;2.55;;;3.20;99.90;;;;;;4916431;29;20313;-72
2022/01/08 03:32:48;;;;;;;4.43;2.00;;;3.30;99.90;;;;;;4916878;29;20209;-72
2022/01/08 03:35:34;;;;;;;2.83;2.33;;;3.20;99.90;;;;;;4922205;29;20205;-72
2022/01/08 03:38:20;;;;;;;3.03;2.15;;;3.30;99.90;;;;;;4912087;29;20209;-72
2022/01/08 03:41:06;;;;;;;2.58;2.33;;;3.20;99.90;;;;;;4920609;29;20745;-71
2022/01/08 03:43:53;;;;;;;2.95;2.50;;;3.20;99.90;;;;;;4921714;29;20945;-72
2022/01/08 03:46:39;;;;;;;4.03;2.10;;;3.20;99.90;;;;;;4915508;29;20218;-72
2022/01/08 03:49:25;;;;;;;2.65;1.90;;;3.20;99.90;;;;;;4928324;29;20201;-71
2022/01/08 03:52:11;;;;;;;4.75;2.90;;;3.20;99.90;;;;;;4915666;29;20214;-71
2022/01/08 03:54:58;;;;;;;3.15;2.33;;;3.30;99.90;;;;;;4919511;29;20205;-71
2022/01/08 03:57:44;;;;;;;2.63;2.00;;;3.20;99.90;;;;;;4917258;29;20213;-72
2022/01/08 04:00:32;;;;;;;3.20;2.00;;;3.20;99.90;;;;;;4925702;29;20237;-72
2022/01/08 04:03:18;;;;;;;4.43;2.20;;;3.30;99.90;;;;;;4921944;29;20200;-72
2022/01/08 04:06:04;;;;;;;2.85;2.00;;;3.40;99.90;;;;;;4912179;29;20217;-72
2022/01/08 04:08:56;;;;;;;2.70;2.00;;;3.40;99.90;;;;;;4922193;29;20419;-72
2022/01/08 04:11:42;;;;;;;3.33;1.95;;;3.30;99.90;;;;;;4915026;29;20233;-72
2022/01/08 04:14:35;;;;;;;3.05;1.98;;;3.20;99.90;;;;;;4914338;29;20314;-73
2022/01/08 04:17:22;;;;;;;2.72;1.55;;;3.20;99.90;;;;;;4910550;29;20205;-72
2022/01/08 04:20:09;;;;;;;2.88;2.00;;;3.30;99.90;;;;;;4905128;29;20237;-72
2022/01/08 04:22:55;;;;;;;2.42;1.40;;;3.30;99.90;;;;;;4907520;29;20700;-72
2022/01/08 04:25:41;;;;;;;2.00;1.70;;;3.20;99.90;;;;;;4898999;29;20213;-72
2022/01/08 04:28:27;;;;;;;3.55;2.10;;;3.30;99.90;;;;;;4925640;29;20719;-71
2022/01/08 04:31:13;;;;;;;7.78;1.60;;;3.20;99.90;;;;;;4924746;29;20350;-72
2022/01/08 04:34:00;;;;;;;2.63;1.70;;;3.10;99.90;;;;;;4923890;29;20285;-72
2022/01/08 04:36:46;;;;;;;2.60;2.20;;;3.10;99.90;;;;;;4921462;29;20317;-72
2022/01/08 04:39:31;;;;;;;2.20;2.00;;;3.10;99.90;;;;;;4923581;29;20261;-72
2022/01/08 04:42:17;;;;;;;3.03;2.25;;;3.20;99.90;;;;;;4915448;29;20295;-72
2022/01/08 04:45:03;;;;;;;2.80;2.40;;;3.20;99.90;;;;;;4917262;29;20261;-72
2022/01/08 04:47:49;;;;;;;2.70;1.92;;;3.30;99.90;;;;;;4917850;29;20218;-72
2022/01/08 04:50:36;;;;;;;2.30;2.10;;;3.30;99.90;;;;;;4918241;29;20233;-72
2022/01/08 04:53:22;;;;;;;4.03;2.17;;;3.30;99.90;;;;;;4921015;29;20699;-72
2022/01/08 04:56:08;;;;;;;3.47;2.70;;;3.30;99.90;;;;;;4916625;29;20852;-72
2022/01/08 04:58:53;;;;;;;3.33;2.72;;;3.20;99.90;;;;;;4924176;29;20212;-72
2022/01/08 05:01:38;;;;;;;4.25;2.95;;;3.30;99.90;;;;;;4934476;29;20585;-72
2022/01/08 05:04:26;;;;;;;2.85;2.03;;;3.20;99.90;;;;;;4919346;29;20311;-72
2022/01/08 05:07:13;;;;;;;2.45;2.25;;;3.10;99.90;;;;;;4912150;29;20201;-72
2022/01/08 05:09:59;;;;;;;2.55;1.95;;;3.20;99.90;;;;;;4923237;29;20586;-72
2022/01/08 05:12:44;;;;;;;2.05;1.58;;;3.00;99.90;;;;;;4914849;29;20221;-72
2022/01/08 05:15:30;;;;;;;1.95;1.55;;;3.00;99.90;;;;;;4922776;29;20208;-71
2022/01/08 05:18:16;;;;;;;2.33;1.60;;;3.00;99.90;;;;;;4914335;29;20209;-72
2022/01/08 05:21:13;;;;;;;2.45;1.65;;;3.00;99.90;;;;;;4925467;29;20237;-72
2022/01/08 05:24:00;;;;;;;1.70;1.10;;;3.00;99.90;;;;;;4913683;29;20205;-72
2022/01/08 05:26:46;;;;;;;1.90;1.15;;;3.10;99.90;;;;;;4924489;29;20277;-72
2022/01/08 05:29:31;;;;;;;1.83;1.20;;;3.10;99.90;;;;;;4918687;29;20198;-72
2022/01/08 05:32:18;;;;;;;1.50;1.10;;;3.00;99.90;;;;;;4913497;29;20278;-72
2022/01/08 05:35:04;;;;;;;1.63;1.17;;;3.00;99.90;;;;;;4914172;29;20351;-72
2022/01/08 05:37:50;;;;;;;1.30;1.00;;;2.90;99.90;;;;;;4926404;29;20205;-72
2022/01/08 05:40:37;;;;;;;1.35;1.10;;;3.00;99.90;;;;;;4924719;29;20244;-72
2022/01/08 05:43:23;;;;;;;1.80;1.20;;;3.10;99.90;;;;;;4920483;29;20208;-72
2022/01/08 05:46:08;;;;;;;1.58;1.00;;;3.10;99.90;;;;;;4909013;29;20217;-72
2022/01/08 05:48:53;;;;;;;2.65;1.23;;;3.10;99.90;;;;;;4926191;29;20205;-72
2022/01/08 05:51:40;;;;;;;1.80;1.15;;;3.10;99.90;;;;;;4942223;23;20303;-71
2022/01/08 05:54:26;;;;;;;1.60;1.25;;;3.10;99.90;;;;;;4948680;29;20208;-71
2022/01/08 05:57:13;;;;;;;1.40;1.10;;;2.90;99.90;;;;;;4948792;29;20276;-72
2022/01/08 05:59:59;;;;;;;1.63;1.23;;;3.00;99.90;;;;;;4955699;29;20243;-71
2022/01/08 06:02:45;;;;;;;1.52;1.20;;;3.00;99.90;;;;;;4954960;29;20252;-71
2022/01/08 06:05:31;;;;;;;2.10;1.50;;;2.90;99.90;;;;;;4952794;29;20207;-71
2022/01/08 06:08:17;;;;;;;2.10;1.90;;;2.90;99.90;;;;;;4956165;28;20224;-71
2022/01/08 06:11:02;;;;;;;2.20;1.85;;;3.00;99.90;;;;;;4955032;29;20239;-72
2022/01/08 06:13:49;;;;;;;2.72;2.53;;;3.00;99.90;;;;;;4947722;29;20275;-72
2022/01/08 06:16:37;;;;;;;2.20;1.92;;;3.00;99.90;;;;;;4949868;29;20215;-71
2022/01/08 06:19:22;;;;;;;3.65;2.40;;;3.00;99.90;;;;;;4956024;29;20215;-72
2022/01/08 06:22:08;;;;;;;2.65;2.13;;;2.90;99.90;;;;;;4953778;29;20224;-71
2022/01/08 06:24:54;;;;;;;2.80;2.58;;;2.90;99.90;;;;;;4947021;29;20204;-71
2022/01/08 06:27:39;;;;;;;2.78;2.58;;;2.80;99.90;;;;;;4962027;28;20212;-71
2022/01/08 06:30:26;;;;;;;3.10;2.80;;;2.90;99.90;;;;;;4948085;29;20590;-71
2022/01/08 06:33:12;;;;;;;3.00;2.50;;;2.80;99.90;;;;;;4943277;29;20451;-72
2022/01/08 06:35:58;;;;;;;3.55;2.90;;;2.90;99.90;;;;;;4953441;28;20287;-72
2022/01/08 06:38:43;;;;;;;4.97;2.83;;;3.00;99.90;;;;;;4953886;29;20208;-72
2022/01/08 06:41:29;;;;;;;2.42;2.22;;;3.10;99.90;;;;;;4950575;29;20729;-72
2022/01/08 06:44:15;;;;;;;2.40;1.92;;;3.10;99.90;;;;;;4950031;29;20216;-71
2022/01/08 06:47:02;;;;;;;3.25;2.30;;;3.10;99.90;;;;;;4955651;29;20201;-72
2022/01/08 06:49:47;;;;;;;2.90;2.40;;;3.00;99.90;;;;;;4954248;28;20705;-72
2022/01/08 06:52:34;;;;;;;2.95;2.08;;;3.00;99.90;;;;;;4953013;29;20365;-72
2022/01/08 06:55:19;;;;;;;3.28;2.50;;;3.00;99.90;;;;;;4948902;29;20291;-72
2022/01/08 06:58:05;;;;;;;2.60;2.40;;;3.00;99.90;;;;;;4953830;29;20264;-72
2022/01/08 07:00:51;;;;;;;2.58;2.00;;;3.10;99.90;;;;;;4951531;29;20232;-72
2022/01/08 07:03:38;;;;;;;3.00;2.60;;;3.10;99.90;;;;;;4945982;28;20213;-72
2022/01/08 07:06:23;;;;;;;2.78;2.20;;;3.20;99.90;;;;;;4955272;29;20292;-72
2022/01/08 07:09:09;;;;;;;2.95;2.63;;;3.20;99.90;;;;;;4950721;29;20212;-72
2022/01/08 07:11:55;;;;;;;3.10;2.70;;;3.30;99.90;;;;;;4953920;29;20220;-72
2022/01/08 07:14:40;;;;;;;3.00;2.40;;;3.20;99.90;;;;;;4950027;29;20280;-72
2022/01/08 07:17:26;;;;;;;3.50;2.42;;;3.10;99.90;;;;;;4948978;29;20304;-72
2022/01/08 07:20:13;;;;;;;3.50;2.80;;;3.00;99.90;;;;;;4936269;29;20212;-72
2022/01/08 07:23:00;;;;;;;3.65;2.90;;;3.10;99.90;;;;;;4948220;28;20213;-72
2022/01/08 07:25:45;;;;;;;4.85;4.13;;;2.90;99.90;;;;;;4952008;29;20200;-71
2022/01/08 07:28:31;;;;;;;4.60;3.75;;;3.00;99.90;;;;;;4944333;29;20208;-72
2022/01/08 07:31:17;;;;;;;5.30;4.30;;;3.00;99.90;;;;;;4945369;29;20280;-72
2022/01/08 07:34:02;;;;;;;5.70;4.40;;;3.00;99.90;;;;;;4946446;29;20390;-71
2022/01/08 07:36:50;;;;;;;6.20;4.90;;;3.10;99.90;;;;;;4952801;29;20232;-72
2022/01/08 07:39:35;;;;;;;4.85;4.35;;;3.10;99.90;;;;;;4954672;29;20570;-72
2022/01/08 07:42:21;;;;;;;7.00;5.18;;;3.20;99.90;;;;;;4941418;28;20232;-72
2022/01/08 07:45:08;;;;;;;7.57;5.07;;;2.90;99.90;;;;;;4953346;29;20324;-72
2022/01/08 07:47:54;;;;;;;9.27;5.78;;;2.80;99.90;;;;;;4951652;28;20216;-72
2022/01/08 07:50:40;;;;;;;10.85;6.25;;;2.80;99.90;;;;;;4946853;29;20257;-72
2022/01/08 07:53:27;;;;;;;6.85;5.28;;;2.90;99.90;;;;;;4943587;29;20208;-72
2022/01/08 07:56:13;;;;;;;8.65;5.63;;;2.90;99.90;;;;;;4949792;28;20216;-72
2022/01/08 07:58:59;;;;;;;9.23;6.15;;;3.00;99.90;;;;;;4953352;28;20252;-72
2022/01/08 08:01:44;;;;;;;9.35;6.13;;;3.10;99.90;;;;;;4947978;29;20231;-73
2022/01/08 08:04:30;;;;;;;7.47;5.70;;;3.20;99.90;;;;;;4949079;29;20196;-72
2022/01/08 08:07:27;;;;;;;6.93;5.18;;;3.30;99.90;;;;;;4947424;29;20636;-72
2022/01/08 08:10:17;;;;;;;7.75;5.43;;;3.30;99.90;;;;;;4937131;29;20224;-72
2022/01/08 08:13:03;;;;;;;7.43;5.60;;;3.40;99.90;;;;;;4949394;29;20205;-72
2022/01/08 08:15:49;;;;;;;11.80;6.45;;;3.50;99.90;;;;;;4947502;29;20236;-72
2022/01/08 08:18:35;;;;;;;8.32;5.68;;;3.50;99.90;;;;;;4954088;28;20208;-72
2022/01/08 08:21:20;;;;;;;8.75;6.53;;;3.50;99.90;;;;;;4949473;29;20236;-72
2022/01/08 08:24:06;;;;;;;7.60;5.82;;;3.60;99.90;;;;;;4953617;29;20216;-72
2022/01/08 08:26:53;;;;;;;9.98;6.68;;;3.60;99.90;;;;;;4958044;28;20268;-72
2022/01/08 08:29:40;;;;;;;9.00;6.53;;;3.70;99.90;;;;;;4947946;29;20200;-72
2022/01/08 08:32:26;;;;;;;17.83;7.65;;;3.60;99.90;;;;;;4940562;29;20706;-72
2022/01/08 08:35:12;;;;;;;11.43;6.32;;;3.70;99.90;;;;;;4951424;29;20211;-72
2022/01/08 08:37:58;;;;;;;8.80;6.82;;;3.60;99.90;;;;;;4951820;29;20220;-72
2022/01/08 08:40:43;;;;;;;8.75;6.15;;;3.60;99.90;;;;;;4947129;29;20585;-72
2022/01/08 08:43:30;;;;;;;11.93;7.38;;;3.70;99.90;;;;;;4949658;29;20220;-72
2022/01/08 08:46:16;;;;;;;9.32;7.63;;;3.70;99.90;;;;;;4941280;28;20211;-72
2022/01/08 08:49:01;;;;;;;9.43;6.40;;;3.70;99.90;;;;;;4951669;29;20200;-73
2022/01/08 08:51:47;;;;;;;13.63;7.70;;;3.80;99.90;;;;;;4944757;28;20595;-72
2022/01/08 08:54:33;;;;;;;28.65;14.20;;;3.70;99.90;;;;;;4950433;29;20302;-72
2022/01/08 08:57:19;;;;;;;38.65;17.88;;;3.80;99.90;;;;;;4959482;28;20344;-74
2022/01/08 09:00:07;;;;;;;16.83;8.70;;;3.80;99.90;;;;;;4950943;29;20207;-72
2022/01/08 09:02:52;;;;;;;10.00;6.90;;;3.90;99.90;;;;;;4938527;29;20210;-73
2022/01/08 09:05:38;;;;;;;13.63;8.00;;;3.90;99.90;;;;;;4949501;29;20344;-73
2022/01/08 09:08:23;;;;;;;8.93;6.40;;;3.80;99.90;;;;;;4947160;29;20203;-73
2022/01/08 09:11:09;;;;;;;10.25;6.80;;;3.80;99.90;;;;;;4943021;29;20227;-73
2022/01/08 09:13:55;;;;;;;11.13;7.20;;;3.60;99.90;;;;;;4943376;29;20299;-73
2022/01/08 09:16:46;;;;;;;12.18;8.40;;;3.70;99.90;;;;;;4951094;29;20220;-72
2022/01/08 09:19:33;;;;;;;12.13;8.23;;;3.70;99.90;;;;;;4947438;29;20586;-73
2022/01/08 09:22:19;;;;;;;11.32;6.38;;;3.70;99.90;;;;;;4938645;29;20299;-73
2022/01/08 09:25:05;;;;;;;14.80;8.25;;;3.70;99.90;;;;;;4951235;29;20697;-74
2022/01/08 09:27:51;;;;;;;20.60;7.90;;;3.70;99.90;;;;;;4940874;28;20205;-70
2022/01/08 09:30:37;;;;;;;16.48;6.22;;;3.80;99.90;;;;;;4949192;29;20204;-71
2022/01/08 09:33:24;;;;;;;7.78;4.72;;;3.80;99.90;;;;;;4949557;29;20738;-70
2022/01/08 09:36:10;;;;;;;23.42;12.02;;;3.90;99.90;;;;;;4936758;29;20207;-70
2022/01/08 09:38:56;;;;;;;23.58;9.18;;;3.80;99.90;;;;;;4947237;29;20571;-70
2022/01/08 09:41:42;;;;;;;12.77;6.38;;;3.90;99.90;;;;;;4937070;28;20237;-70
2022/01/08 09:44:28;;;;;;;10.43;5.72;;;3.90;99.90;;;;;;4946328;28;20212;-71
2022/01/08 09:47:14;;;;;;;12.35;7.10;;;3.80;99.90;;;;;;4939292;29;20312;-70
2022/01/08 09:50:02;;;;;;;26.15;12.55;;;3.70;99.90;;;;;;4947332;28;20295;-72
2022/01/08 09:52:47;;;;;;;23.73;6.30;;;3.60;99.90;;;;;;4950061;29;20239;-72
2022/01/08 09:55:33;;;;;;;11.77;6.15;;;3.70;99.90;;;;;;4952769;29;20207;-73
2022/01/08 09:58:19;;;;;;;13.18;4.07;;;3.70;99.90;;;;;;4952849;29;20213;-72
2022/01/08 10:01:22;;;;;;;8.40;4.82;;;3.70;99.90;;;;;;4941027;29;20714;-72
2022/01/08 10:04:08;;;;;;;7.30;4.97;;;3.70;99.90;;;;;;4934011;29;20197;-72
2022/01/08 10:07:15;;;;;;;11.23;5.20;;;3.80;99.90;;;;;;4933785;29;20779;-72
2022/01/08 10:10:12;;;;;;;8.75;5.82;;;3.90;99.90;;;;;;4935272;29;20208;-72
2022/01/08 10:13:00;;;;;;;5.93;4.65;;;4.00;99.90;;;;;;4936549;29;20674;-72
2022/01/08 10:18:50;;;;;;;13.18;4.95;;;4.20;99.90;;;;;;4951491;29;20236;-72
2022/01/08 10:21:38;;;;;;;11.77;5.85;;;4.20;99.90;;;;;;4944664;29;20725;-73
2022/01/08 10:24:27;;;;;;;9.60;5.20;;;4.20;99.90;;;;;;4938202;28;20432;-72
2022/01/08 10:27:12;;;;;;;8.60;4.15;;;4.30;99.90;;;;;;4946747;28;20196;-72
2022/01/08 10:29:58;;;;;;;5.20;3.42;;;4.40;99.90;;;;;;4953121;28;20205;-71
2022/01/08 10:32:56;;;;;;;8.88;4.68;;;4.30;99.90;;;;;;4960556;28;20603;-71
2022/01/08 10:35:49;;;;;;;12.73;4.55;;;4.30;99.90;;;;;;4975254;28;20292;-71
2022/01/08 10:38:35;;;;;;;20.58;6.97;;;4.20;99.90;;;;;;4975252;28;20227;-72
2022/01/08 10:41:23;;;;;;;14.07;6.45;;;4.10;99.90;;;;;;4935947;28;20709;-72
2022/01/08 10:44:14;;;;;;;10.55;5.10;;;4.00;99.90;;;;;;4946012;28;20240;-72
2022/01/08 10:47:02;;;;;;;8.23;4.57;;;4.00;99.90;;;;;;4954568;29;20283;-72
2022/01/08 10:50:00;;;;;;;7.93;4.43;;;4.00;99.90;;;;;;4945431;29;20205;-72
2022/01/08 10:52:47;;;;;;;13.93;5.32;;;4.10;99.90;;;;;;4948560;29;20627;-72
2022/01/08 10:55:33;;;;;;;11.63;4.47;;;4.30;99.90;;;;;;4952893;29;20674;-73
2022/01/08 10:58:42;;;;;;;8.82;5.10;;;4.40;99.90;;;;;;4950540;28;20220;-72
2022/01/08 11:01:56;;;;;;;9.38;4.57;;;4.80;99.90;;;;;;4952054;29;20232;-72
2022/01/08 11:04:46;;;;;;;14.15;4.65;;;5.10;99.90;;;;;;4944224;29;20209;-72
2022/01/08 11:07:33;;;;;;;10.63;3.83;;;5.00;99.90;;;;;;4940016;29;20690;-72
2022/01/08 11:10:21;;;;;;;5.65;3.88;;;5.20;99.90;;;;;;4942198;29;20702;-73
2022/01/08 11:13:08;;;;;;;19.70;4.55;;;5.10;99.90;;;;;;4948682;29;20200;-73
2022/01/08 11:15:56;;;;;;;10.43;4.18;;;5.10;99.90;;;;;;4948982;29;20201;-72
2022/01/08 11:18:42;;;;;;;13.18;4.20;;;5.10;99.90;;;;;;4943932;28;20227;-72
2022/01/08 11:21:31;;;;;;;7.65;4.25;;;5.10;99.90;;;;;;4944525;29;20228;-72
2022/01/08 11:24:19;;;;;;;9.82;3.83;;;5.20;99.90;;;;;;4937673;28;20687;-73
2022/01/08 11:27:07;;;;;;;15.85;3.90;;;5.10;99.90;;;;;;4948500;29;20204;-72
2022/01/08 11:30:03;;;;;;;7.63;4.00;;;5.10;99.90;;;;;;4940751;29;20677;-73
2022/01/08 11:32:52;;;;;;;13.95;4.43;;;5.00;99.90;;;;;;4949812;29;20221;-71
2022/01/08 11:35:38;;;;;;;8.35;3.50;;;4.90;99.90;;;;;;4951669;29;20275;-71
2022/01/08 11:38:27;;;;;;;11.35;4.38;;;4.90;99.90;;;;;;4946249;28;20260;-72
2022/01/08 11:41:13;;;;;;;7.63;3.90;;;4.80;99.90;;;;;;4945369;29;20232;-72
2022/01/08 11:43:58;;;;;;;12.07;3.40;;;4.80;99.90;;;;;;4953436;29;20682;-73
2022/01/08 11:46:46;;;;;;;9.35;4.45;;;4.90;99.90;;;;;;4950881;28;20628;-72
2022/01/08 11:49:33;;;;;;;11.13;4.60;;;4.90;99.90;;;;;;4942468;29;20216;-73
2022/01/08 11:52:22;;;;;;;15.18;4.20;;;4.80;99.90;;;;;;4959755;23;20283;-74
2022/01/08 11:55:09;;;;;;;6.57;3.70;;;4.90;99.90;;;;;;4952828;28;20754;-75
2022/01/08 11:58:14;;;;;;;7.10;3.92;;;4.90;99.90;;;;;;4949728;28;20693;-74
2022/01/08 12:01:01;;;;;;;7.35;3.55;;;4.90;99.90;;;;;;4952150;28;20300;-75
2022/01/08 12:03:51;;;;;;;7.78;3.58;;;4.90;99.90;;;;;;4953454;28;20204;-74
2022/01/08 12:06:39;;;;;;;12.05;3.53;;;4.70;99.90;;;;;;4952548;29;20204;-75
2022/01/08 12:09:28;;;;;;;6.85;3.10;;;4.80;99.90;;;;;;4941767;29;20208;-74
2022/01/08 12:12:16;;;;;;;12.60;3.10;;;4.70;99.90;;;;;;4947411;28;20232;-74
2022/01/08 12:15:02;;;;;;;4.03;2.97;;;4.80;99.90;;;;;;4952372;29;20207;-75
2022/01/08 12:17:57;;;;;;;6.63;3.45;;;4.70;99.90;;;;;;4951278;29;20695;-73
2022/01/08 12:20:45;;;;;;;4.57;3.03;;;4.80;99.90;;;;;;4949621;29;20596;-72
2022/01/08 12:23:37;;;;;;;4.72;2.92;;;4.80;99.90;;;;;;4948929;29;20227;-72
2022/01/08 12:26:39;;;;;;;8.20;3.15;;;4.70;99.90;;;;;;4955729;28;20616;-72
2022/01/08 12:29:34;;;;;;;8.98;4.07;;;4.70;99.90;;;;;;4943623;28;20207;-72
2022/01/08 12:32:29;;;;;;;11.65;3.55;;;4.80;99.90;;;;;;4951313;29;20224;-71
2022/01/08 12:35:25;;;;;;;6.70;3.10;;;4.90;99.90;;;;;;4949859;28;20662;-72
2022/01/08 12:38:25;;;;;;;9.90;3.03;;;5.10;99.90;;;;;;4941694;29;20333;-71
2022/01/08 12:41:20;;;;;;;10.63;4.07;;;5.20;99.90;;;;;;4953108;28;20229;-72
2022/01/08 12:44:27;;;;;;;12.80;5.70;;;5.10;99.90;;;;;;4951407;29;20684;-72
2022/01/08 12:47:40;;;;;;;7.57;3.80;;;5.10;99.90;;;;;;4951872;29;20585;-71
2022/01/08 12:50:33;;;;;;;10.88;3.25;;;5.00;99.90;;;;;;4950148;29;20296;-72
2022/01/08 12:53:22;;;;;;;12.60;2.95;;;4.90;99.90;;;;;;4954326;29;20212;-73
2022/01/08 12:56:13;;;;;;;10.45;3.50;;;4.80;99.90;;;;;;4953408;29;20695;-73
2022/01/08 12:59:02;;;;;;;10.27;2.92;;;4.80;99.90;;;;;;4948528;29;20211;-73
2022/01/08 13:01:49;;;;;;;8.40;2.90;;;4.70;99.90;;;;;;4953524;28;20232;-74
2022/01/08 13:04:35;;;;;;;4.97;3.20;;;4.70;99.90;;;;;;4954537;29;20628;-72
2022/01/08 13:07:21;;;;;;;6.30;2.20;;;4.80;99.90;;;;;;4947571;28;20204;-73
2022/01/08 13:10:08;;;;;;;8.35;3.30;;;4.80;99.90;;;;;;4954653;28;20617;-74
2022/01/08 13:13:02;;;;;;;4.55;2.58;;;4.80;99.90;;;;;;4952364;28;20295;-72
2022/01/08 13:15:49;;;;;;;6.35;3.55;;;4.80;99.90;;;;;;4951574;28;20259;-75
2022/01/08 13:18:35;;;;;;;6.93;4.25;;;4.70;99.90;;;;;;4944982;29;20211;-75
2022/01/08 13:21:23;;;;;;;9.38;3.22;;;4.70;99.90;;;;;;4953686;28;20243;-74
2022/01/08 13:24:14;;;;;;;7.78;3.45;;;4.70;99.90;;;;;;4953325;29;20564;-75
2022/01/08 13:27:03;;;;;;;7.22;3.53;;;4.90;99.90;;;;;;4950486;29;20694;-71
2022/01/08 13:29:50;;;;;;;11.15;4.22;;;4.70;99.90;;;;;;4952129;28;20209;-74
2022/01/08 13:32:37;;;;;;;4.45;3.03;;;4.60;99.90;;;;;;4953040;28;20223;-73
2022/01/08 13:35:23;;;;;;;10.70;4.10;;;4.50;99.90;;;;;;4949705;28;20216;-73
2022/01/08 13:38:08;;;;;;;8.55;3.60;;;4.40;99.90;;;;;;4941935;29;20216;-74
2022/01/08 13:40:54;;;;;;;5.00;2.75;;;4.50;99.90;;;;;;4951196;28;20681;-75
2022/01/08 13:43:57;;;;;;;8.40;4.53;;;4.50;99.90;;;;;;4951915;29;20231;-74
2022/01/08 13:46:45;;;;;;;4.65;3.35;;;4.50;99.90;;;;;;4946464;28;20216;-74
2022/01/08 13:49:32;;;;;;;8.10;3.70;;;4.50;99.90;;;;;;4951141;29;20681;-74
2022/01/08 13:52:22;;;;;;;10.00;3.38;;;4.50;99.90;;;;;;4950942;28;20360;-74
2022/01/08 13:55:18;;;;;;;5.60;3.53;;;4.40;99.90;;;;;;4955869;28;20676;-74
2022/01/08 13:58:07;;;;;;;7.10;3.80;;;4.40;99.90;;;;;;4953055;28;20541;-75
2022/01/08 14:00:59;;;;;;;9.18;3.53;;;4.40;99.90;;;;;;4953329;29;20309;-74
2022/01/08 14:03:46;;;;;;;7.60;4.85;;;4.50;99.90;;;;;;4955750;28;20729;-74
2022/01/08 14:06:33;;;;;;;6.55;3.75;;;4.50;99.90;;;;;;4948627;28;20200;-74
2022/01/08 14:09:19;;;;;;;4.45;2.83;;;4.60;99.90;;;;;;4947741;29;20224;-74
2022/01/08 14:12:15;;;;;;;6.55;3.38;;;4.50;99.90;;;;;;4953971;28;20224;-74
2022/01/08 14:15:04;;;;;;;7.63;3.72;;;4.60;99.90;;;;;;4954273;29;20213;-74
2022/01/08 14:17:50;;;;;;;9.15;3.85;;;4.60;99.90;;;;;;4951525;29;20212;-74
2022/01/08 14:20:36;;;;;;;6.28;2.90;;;4.50;99.90;;;;;;4956388;29;20693;-74
2022/01/08 14:23:27;;;;;;;9.10;3.10;;;4.60;99.90;;;;;;4954261;28;20239;-73
2022/01/08 14:26:14;;;;;;;4.70;2.85;;;4.60;99.90;;;;;;4948454;28;20204;-72
2022/01/08 14:29:02;;;;;;;5.15;2.90;;;4.60;99.90;;;;;;4954498;29;20309;-73
2022/01/08 14:31:55;;;;;;;7.93;3.25;;;4.50;99.90;;;;;;4955338;28;20224;-74
2022/01/08 14:34:46;;;;;;;6.00;2.50;;;4.60;99.90;;;;;;4955721;29;20282;-73
2022/01/08 14:37:33;;;;;;;6.22;3.00;;;4.50;99.90;;;;;;4952211;28;20300;-74
2022/01/08 14:40:23;;;;;;;5.18;2.42;;;4.50;99.90;;;;;;4947104;29;20211;-73
2022/01/08 14:43:10;;;;;;;5.45;2.50;;;4.50;99.90;;;;;;4955698;28;20223;-74
2022/01/08 14:45:56;;;;;;;9.48;2.85;;;4.60;99.90;;;;;;4951333;29;20205;-73
2022/01/08 14:48:41;;;;;;;5.63;2.90;;;4.50;99.90;;;;;;4954480;29;20207;-74
2022/01/08 14:51:30;;;;;;;6.43;3.00;;;4.40;99.90;;;;;;4950237;28;20374;-74
2022/01/08 14:54:16;;;;;;;6.95;2.53;;;4.40;99.90;;;;;;4954153;28;20292;-74
2022/01/08 14:57:04;;;;;;;6.32;2.97;;;4.50;99.90;;;;;;4957669;28;20693;-74
2022/01/08 14:59:49;;;;;;;3.83;2.28;;;4.60;99.90;;;;;;4952821;29;20200;-74